Time;durP1;ratioP1;P1;durP2;ratioP2;P2;SDS_P1;SDS_P2;PMS_P1;PMS_P2;Temp;Humidity;BMP_temperature;BMP_pressure;BME280_temperature;BME280_humidity;BME280_pressure;Samples;Min_cycle;Max_cycle;Signal;HPM_P1;HPM_P2
2023/03/02 00:01:40;;;;;;;106.18;48.95;;;;;;;;;;5023064;28;20541;-68
2023/03/02 00:04:07;;;;;;;108.57;49.45;;;;;;;;;;5023238;28;20069;-68
2023/03/02 00:06:33;;;;;;;112.65;48.63;;;;;;;;;;5022810;28;20045;-68
2023/03/02 00:09:01;;;;;;;118.95;51.28;;;;;;;;;;5023141;28;20034;-68
2023/03/02 00:11:27;;;;;;;115.57;48.92;;;;;;;;;;5021077;28;20518;-69
2023/03/02 00:13:53;;;;;;;124.38;51.08;;;;;;;;;;5021723;28;20075;-68
2023/03/02 00:16:18;;;;;;;121.10;50.80;;;;;;;;;;5023196;28;20021;-68
2023/03/02 00:18:43;;;;;;;124.05;52.88;;;;;;;;;;5023128;28;20049;-69
2023/03/02 00:21:09;;;;;;;125.28;53.72;;;;;;;;;;5021729;28;20119;-69
2023/03/02 00:23:35;;;;;;;125.50;53.05;;;;;;;;;;5021557;28;20117;-68
2023/03/02 00:26:00;;;;;;;126.32;54.25;;;;;;;;;;5022643;28;20207;-68
2023/03/02 00:28:26;;;;;;;131.05;53.08;;;;;;;;;;5023003;28;20097;-67
2023/03/02 00:30:54;;;;;;;133.35;54.88;;;;;;;;;;5021036;28;20022;-67
2023/03/02 00:33:19;;;;;;;133.52;55.15;;;;;;;;;;5008458;28;20494;-68
2023/03/02 00:35:46;;;;;;;135.45;54.13;;;;;;;;;;5034140;28;20080;-68
2023/03/02 00:38:11;;;;;;;122.13;51.95;;;;;;;;;;5003127;28;20057;-68
2023/03/02 00:40:36;;;;;;;128.88;53.45;;;;;;;;;;5002657;28;20042;-69
2023/03/02 00:43:02;;;;;;;125.28;52.70;;;;;;;;;;5003679;28;20026;-67
2023/03/02 00:45:27;;;;;;;128.93;55.05;;;;;;;;;;5003193;28;20021;-68
2023/03/02 00:47:55;;;;;;;123.10;53.13;;;;;;;;;;5018963;28;20045;-68
2023/03/02 00:50:20;;;;;;;120.07;51.95;;;;;;;;;;5020450;28;20038;-68
2023/03/02 00:52:46;;;;;;;122.45;53.63;;;;;;;;;;5022516;28;20041;-68
2023/03/02 00:55:11;;;;;;;120.10;52.55;;;;;;;;;;5020893;28;20052;-69
2023/03/02 00:57:36;;;;;;;123.18;53.72;;;;;;;;;;5023083;28;20041;-69
2023/03/02 01:00:03;;;;;;;126.78;51.95;;;;;;;;;;5020452;28;20056;-69
2023/03/02 01:02:28;;;;;;;115.97;51.33;;;;;;;;;;5022281;28;20430;-68
2023/03/02 01:04:58;;;;;;;113.10;49.15;;;;;;;;;;5021105;28;20040;-69
2023/03/02 01:07:27;;;;;;;116.50;51.72;;;;;;;;;;5022471;28;20540;-68
2023/03/02 01:09:52;;;;;;;114.30;50.33;;;;;;;;;;5023263;28;20026;-69
2023/03/02 01:12:18;;;;;;;116.47;50.58;;;;;;;;;;5022282;28;20052;-69
2023/03/02 01:14:45;;;;;;;110.45;48.40;;;;;;;;;;5022814;28;20352;-69
2023/03/02 01:17:11;;;;;;;113.13;50.35;;;;;;;;;;5022139;28;20046;-69
2023/03/02 01:19:37;;;;;;;111.55;49.75;;;;;;;;;;5020916;28;20124;-69
2023/03/02 01:22:04;;;;;;;110.72;49.28;;;;;;;;;;5003535;28;20156;-69
2023/03/02 01:24:31;;;;;;;109.28;49.10;;;;;;;;;;5022202;28;20569;-69
2023/03/02 01:26:56;;;;;;;109.15;50.20;;;;;;;;;;5020816;28;20041;-69
2023/03/02 01:29:21;;;;;;;110.22;48.97;;;;;;;;;;5022136;28;20069;-69
2023/03/02 01:31:46;;;;;;;105.22;49.58;;;;;;;;;;5002257;28;20216;-69
2023/03/02 01:34:12;;;;;;;105.90;47.42;;;;;;;;;;5004756;28;20496;-69
2023/03/02 01:36:37;;;;;;;104.88;48.50;;;;;;;;;;4988642;28;20030;-70
2023/03/02 01:39:03;;;;;;;101.70;47.03;;;;;;;;;;5037869;28;20041;-68
2023/03/02 01:41:29;;;;;;;98.80;45.28;;;;;;;;;;5005797;28;20080;-68
2023/03/02 01:43:54;;;;;;;96.43;44.83;;;;;;;;;;5004575;28;20038;-68
2023/03/02 01:46:26;;;;;;;93.93;44.60;;;;;;;;;;5009060;28;20479;-67
2023/03/02 01:48:55;;;;;;;87.78;44.30;;;;;;;;;;5025544;28;20025;-69
2023/03/02 01:51:23;;;;;;;88.55;41.15;;;;;;;;;;5025799;28;20021;-70
2023/03/02 01:53:51;;;;;;;83.10;40.05;;;;;;;;;;5024000;28;20075;-68
2023/03/02 01:56:19;;;;;;;75.15;38.53;;;;;;;;;;5023970;28;20487;-70
2023/03/02 01:58:47;;;;;;;78.63;39.08;;;;;;;;;;5025874;28;20129;-67
2023/03/02 02:01:14;;;;;;;78.68;38.88;;;;;;;;;;5025976;28;20521;-68
2023/03/02 02:03:43;;;;;;;74.13;39.22;;;;;;;;;;5025810;28;20033;-68
2023/03/02 02:06:27;;;;;;;79.35;38.92;;;;;;;;;;5024904;28;20446;-67
2023/03/02 02:08:54;;;;;;;77.00;39.00;;;;;;;;;;5025515;28;20032;-69
2023/03/02 02:11:20;;;;;;;75.45;37.10;;;;;;;;;;5024717;28;20115;-68
2023/03/02 02:13:47;;;;;;;72.95;36.83;;;;;;;;;;5025380;28;20075;-68
2023/03/02 02:16:12;;;;;;;76.57;38.10;;;;;;;;;;5024788;28;20029;-69
2023/03/02 02:18:44;;;;;;;68.72;36.78;;;;;;;;;;5023516;28;20115;-67
2023/03/02 02:21:10;;;;;;;73.07;36.83;;;;;;;;;;5024836;28;20048;-68
2023/03/02 02:23:41;;;;;;;69.32;36.38;;;;;;;;;;5025761;28;20631;-68
2023/03/02 02:26:06;;;;;;;70.05;36.10;;;;;;;;;;5025184;28;20095;-68
2023/03/02 02:28:38;;;;;;;71.22;36.15;;;;;;;;;;5023234;28;20029;-68
2023/03/02 02:31:08;;;;;;;72.07;36.42;;;;;;;;;;5023474;28;20041;-68
2023/03/02 02:33:37;;;;;;;72.05;36.50;;;;;;;;;;4983719;28;20391;-69
2023/03/02 02:36:05;;;;;;;69.55;36.13;;;;;;;;;;4983880;28;20033;-69
2023/03/02 02:38:35;;;;;;;68.82;35.97;;;;;;;;;;4985152;28;20026;-68
2023/03/02 02:41:02;;;;;;;64.85;35.30;;;;;;;;;;4983501;28;20583;-68
2023/03/02 02:43:31;;;;;;;67.18;35.22;;;;;;;;;;4984675;28;20632;-69
2023/03/02 02:45:57;;;;;;;69.15;35.65;;;;;;;;;;5007148;28;20593;-69
2023/03/02 02:48:23;;;;;;;67.85;36.15;;;;;;;;;;5043353;28;20037;-68
2023/03/02 02:50:52;;;;;;;62.97;34.50;;;;;;;;;;5024707;28;20141;-69
2023/03/02 02:53:20;;;;;;;69.30;35.17;;;;;;;;;;5022601;28;20478;-68
2023/03/02 02:55:47;;;;;;;64.72;34.70;;;;;;;;;;5024882;28;20306;-69
2023/03/02 02:58:27;;;;;;;60.63;32.22;;;;;;;;;;5024344;28;20033;-68
2023/03/02 03:00:58;;;;;;;60.38;31.80;;;;;;;;;;5022828;28;20112;-68
2023/03/02 03:03:29;;;;;;;62.47;32.88;;;;;;;;;;5023592;28;20033;-68
2023/03/02 03:05:56;;;;;;;58.92;32.55;;;;;;;;;;5024096;28;20575;-68
2023/03/02 03:08:39;;;;;;;60.95;32.50;;;;;;;;;;5022344;28;20073;-68
2023/03/02 03:11:04;;;;;;;60.95;33.28;;;;;;;;;;5022450;28;20028;-68
2023/03/02 03:13:30;;;;;;;58.78;31.77;;;;;;;;;;5024407;28;20029;-68
2023/03/02 03:15:55;;;;;;;58.92;31.48;;;;;;;;;;5024347;28;20025;-68
2023/03/02 03:18:21;;;;;;;62.05;32.88;;;;;;;;;;5022190;28;20534;-69
2023/03/02 03:20:49;;;;;;;62.95;33.58;;;;;;;;;;5023933;28;20557;-68
2023/03/02 03:23:14;;;;;;;58.50;32.63;;;;;;;;;;5022442;28;20030;-67
2023/03/02 03:25:39;;;;;;;60.25;32.10;;;;;;;;;;5023757;28;20533;-68
2023/03/02 03:28:05;;;;;;;63.30;32.17;;;;;;;;;;5024165;28;20037;-68
2023/03/02 03:30:30;;;;;;;60.30;31.55;;;;;;;;;;5023230;28;20037;-68
2023/03/02 03:32:55;;;;;;;57.13;31.83;;;;;;;;;;4987079;28;20198;-69
2023/03/02 03:35:23;;;;;;;55.90;30.25;;;;;;;;;;4992370;28;20038;-68
2023/03/02 03:37:48;;;;;;;56.65;30.77;;;;;;;;;;4998255;28;20034;-68
2023/03/02 03:40:16;;;;;;;58.45;31.02;;;;;;;;;;5003927;28;20037;-68
2023/03/02 03:42:41;;;;;;;61.88;32.90;;;;;;;;;;4985713;28;20034;-68
2023/03/02 03:45:07;;;;;;;56.20;30.83;;;;;;;;;;4982514;28;20049;-69
2023/03/02 03:47:35;;;;;;;53.75;30.25;;;;;;;;;;5014775;28;20036;-68
2023/03/02 03:50:00;;;;;;;54.97;30.10;;;;;;;;;;5023706;28;20025;-68
2023/03/02 03:52:31;;;;;;;56.05;29.85;;;;;;;;;;5005044;28;20040;-69
2023/03/02 03:54:58;;;;;;;56.22;30.73;;;;;;;;;;5021613;28;20028;-67
2023/03/02 03:57:24;;;;;;;55.53;30.45;;;;;;;;;;5021637;28;20026;-69
2023/03/02 03:59:52;;;;;;;56.40;30.70;;;;;;;;;;5021421;28;20035;-67
2023/03/02 04:02:17;;;;;;;56.65;31.05;;;;;;;;;;5023312;28;20033;-68
2023/03/02 04:04:45;;;;;;;58.00;30.13;;;;;;;;;;5004755;28;20491;-68
2023/03/02 04:07:11;;;;;;;51.25;28.52;;;;;;;;;;5021551;28;20029;-68
2023/03/02 04:09:39;;;;;;;53.20;29.98;;;;;;;;;;5023608;28;20026;-68
2023/03/02 04:12:04;;;;;;;54.30;28.90;;;;;;;;;;5023141;28;20029;-68
2023/03/02 04:14:32;;;;;;;52.72;29.13;;;;;;;;;;5021489;28;20030;-68
2023/03/02 04:17:04;;;;;;;51.70;29.60;;;;;;;;;;5023007;28;20541;-68
2023/03/02 04:19:29;;;;;;;54.40;28.75;;;;;;;;;;5022839;28;20120;-68
2023/03/02 04:21:57;;;;;;;51.70;29.15;;;;;;;;;;5021554;28;20120;-68
2023/03/02 04:24:29;;;;;;;51.17;27.45;;;;;;;;;;5022723;28;20112;-68
2023/03/02 04:26:54;;;;;;;46.53;27.30;;;;;;;;;;5022555;28;20037;-68
2023/03/02 04:29:20;;;;;;;50.17;28.20;;;;;;;;;;5023360;28;20038;-68
2023/03/02 04:31:48;;;;;;;53.33;27.98;;;;;;;;;;5007363;28;20030;-68
2023/03/02 04:34:13;;;;;;;53.00;28.08;;;;;;;;;;5002776;28;20041;-69
2023/03/02 04:36:43;;;;;;;53.88;27.70;;;;;;;;;;5003675;28;20228;-68
2023/03/02 04:39:12;;;;;;;52.85;28.25;;;;;;;;;;5003506;28;20092;-68
2023/03/02 04:41:37;;;;;;;48.97;28.60;;;;;;;;;;5002944;28;20478;-67
2023/03/02 04:44:03;;;;;;;53.42;28.40;;;;;;;;;;5001426;28;20113;-68
2023/03/02 04:46:33;;;;;;;52.75;28.20;;;;;;;;;;5009077;28;20064;-68
2023/03/02 04:48:58;;;;;;;48.65;27.95;;;;;;;;;;5021256;28;20036;-68
2023/03/02 04:51:27;;;;;;;51.17;28.30;;;;;;;;;;5020486;28;20025;-67
2023/03/02 04:53:53;;;;;;;49.97;28.08;;;;;;;;;;5020287;28;20076;-67
2023/03/02 04:56:19;;;;;;;50.58;28.45;;;;;;;;;;5023052;28;20133;-67
2023/03/02 04:58:44;;;;;;;55.05;29.48;;;;;;;;;;5022512;28;20108;-67
2023/03/02 05:01:10;;;;;;;54.55;27.98;;;;;;;;;;5022840;28;20022;-68
2023/03/02 05:03:35;;;;;;;57.20;29.90;;;;;;;;;;5004630;28;20034;-67
2023/03/02 05:06:02;;;;;;;59.22;30.20;;;;;;;;;;5022606;28;20033;-68
2023/03/02 05:08:28;;;;;;;56.22;30.90;;;;;;;;;;5024112;28;20029;-67
2023/03/02 05:10:53;;;;;;;51.55;28.88;;;;;;;;;;5026614;28;20187;-68
2023/03/02 05:13:18;;;;;;;57.30;30.73;;;;;;;;;;5024263;28;20026;-68
2023/03/02 05:15:46;;;;;;;52.75;29.73;;;;;;;;;;5026107;28;20036;-68
2023/03/02 05:18:11;;;;;;;57.20;30.00;;;;;;;;;;5025710;28;20044;-69
2023/03/02 05:20:37;;;;;;;58.05;31.02;;;;;;;;;;5008151;28;20049;-69
2023/03/02 05:23:04;;;;;;;59.05;31.30;;;;;;;;;;5025501;28;20057;-68
2023/03/02 05:25:30;;;;;;;53.80;30.48;;;;;;;;;;5026474;28;20034;-68
2023/03/02 05:27:56;;;;;;;59.80;30.88;;;;;;;;;;5024417;28;20179;-68
2023/03/02 05:30:21;;;;;;;61.70;31.90;;;;;;;;;;5019486;28;20117;-68
2023/03/02 05:32:47;;;;;;;56.55;29.50;;;;;;;;;;5005835;28;20034;-68
2023/03/02 05:35:12;;;;;;;58.90;30.58;;;;;;;;;;5006085;28;20030;-68
2023/03/02 05:37:43;;;;;;;59.35;30.52;;;;;;;;;;5020514;28;20057;-67
2023/03/02 05:40:14;;;;;;;58.55;31.85;;;;;;;;;;5004611;28;20045;-68
2023/03/02 05:42:40;;;;;;;58.22;30.42;;;;;;;;;;5005574;28;20580;-69
2023/03/02 05:45:12;;;;;;;59.03;30.90;;;;;;;;;;5020464;28;20113;-68
2023/03/02 05:47:37;;;;;;;57.70;30.23;;;;;;;;;;5052853;28;20080;-68
2023/03/02 05:50:02;;;;;;;61.55;30.90;;;;;;;;;;5026205;28;20056;-68
2023/03/02 05:52:27;;;;;;;57.80;29.67;;;;;;;;;;5024745;28;20418;-69
2023/03/02 05:54:55;;;;;;;57.60;30.73;;;;;;;;;;5007774;28;20034;-68
2023/03/02 05:57:20;;;;;;;60.95;31.58;;;;;;;;;;5025884;28;20033;-69
2023/03/02 05:59:50;;;;;;;57.35;30.30;;;;;;;;;;5025282;28;20052;-70
2023/03/02 06:02:18;;;;;;;53.08;29.15;;;;;;;;;;5023690;28;20099;-69
2023/03/02 06:04:46;;;;;;;56.42;30.00;;;;;;;;;;5025002;28;20083;-69
2023/03/02 06:07:11;;;;;;;52.97;28.45;;;;;;;;;;5024859;28;20395;-69
2023/03/02 06:09:39;;;;;;;53.50;29.20;;;;;;;;;;5023883;28;20294;-68
2023/03/02 06:12:05;;;;;;;58.72;29.90;;;;;;;;;;5024575;28;20026;-69
2023/03/02 06:14:34;;;;;;;57.33;29.98;;;;;;;;;;5024786;28;20164;-69
2023/03/02 06:16:59;;;;;;;54.33;29.02;;;;;;;;;;5025145;28;20116;-68
2023/03/02 06:19:24;;;;;;;51.95;28.00;;;;;;;;;;5022033;28;20048;-68
2023/03/02 06:21:52;;;;;;;53.28;29.75;;;;;;;;;;5025321;28;20034;-68
2023/03/02 06:24:17;;;;;;;55.60;28.85;;;;;;;;;;5006343;28;20036;-68
2023/03/02 06:26:42;;;;;;;59.85;28.83;;;;;;;;;;5022728;28;20046;-70
2023/03/02 06:29:10;;;;;;;56.83;29.25;;;;;;;;;;5023238;28;20544;-69
2023/03/02 06:31:35;;;;;;;56.00;28.48;;;;;;;;;;5006728;28;20064;-68
2023/03/02 06:34:03;;;;;;;57.45;27.35;;;;;;;;;;5004699;28;20037;-68
2023/03/02 06:36:28;;;;;;;50.92;26.30;;;;;;;;;;5004655;28;20042;-69
2023/03/02 06:38:56;;;;;;;49.72;27.20;;;;;;;;;;5036635;28;20030;-69
2023/03/02 06:41:26;;;;;;;49.15;26.98;;;;;;;;;;5004855;28;20114;-68
2023/03/02 06:43:53;;;;;;;51.40;28.02;;;;;;;;;;5005000;28;20033;-68
2023/03/02 06:46:19;;;;;;;51.10;26.15;;;;;;;;;;5041418;28;20049;-69
2023/03/02 06:48:44;;;;;;;53.05;26.98;;;;;;;;;;5024766;28;20123;-68
2023/03/02 06:51:11;;;;;;;55.13;28.30;;;;;;;;;;5024946;28;20585;-69
2023/03/02 06:53:36;;;;;;;55.08;28.40;;;;;;;;;;5024299;28;20034;-69
2023/03/02 06:56:02;;;;;;;54.85;28.10;;;;;;;;;;5024318;28;20029;-68
2023/03/02 06:58:27;;;;;;;52.65;27.55;;;;;;;;;;5022501;28;20026;-69
2023/03/02 07:00:55;;;;;;;53.35;28.30;;;;;;;;;;5024687;28;20419;-69
2023/03/02 07:03:21;;;;;;;51.97;27.58;;;;;;;;;;5022538;28;20470;-68
2023/03/02 07:05:47;;;;;;;54.20;27.85;;;;;;;;;;5024664;28;20036;-68
2023/03/02 07:08:13;;;;;;;52.20;27.98;;;;;;;;;;5024442;28;20064;-70
2023/03/02 07:10:38;;;;;;;51.13;27.90;;;;;;;;;;5024619;28;20025;-69
2023/03/02 07:13:03;;;;;;;50.47;27.75;;;;;;;;;;5022337;28;20100;-68
2023/03/02 07:15:28;;;;;;;56.10;27.52;;;;;;;;;;5006066;28;20097;-70
2023/03/02 07:17:56;;;;;;;57.53;27.77;;;;;;;;;;5021191;28;20128;-69
2023/03/02 07:20:22;;;;;;;53.20;27.33;;;;;;;;;;5022489;28;20108;-69
2023/03/02 07:22:47;;;;;;;49.00;25.92;;;;;;;;;;5023927;28;20025;-68
2023/03/02 07:25:12;;;;;;;51.95;27.00;;;;;;;;;;5023860;28;20040;-68
2023/03/02 07:27:38;;;;;;;54.13;28.02;;;;;;;;;;5023682;28;20037;-68
2023/03/02 07:30:05;;;;;;;52.15;27.13;;;;;;;;;;5014692;28;20326;-68
2023/03/02 07:32:32;;;;;;;53.55;28.52;;;;;;;;;;5004300;28;20187;-68
2023/03/02 07:34:58;;;;;;;55.33;29.13;;;;;;;;;;5003823;28;20025;-68
2023/03/02 07:37:23;;;;;;;51.92;28.27;;;;;;;;;;5004400;28;20044;-70
2023/03/02 07:39:49;;;;;;;53.95;28.70;;;;;;;;;;5003647;28;20041;-68
2023/03/02 07:42:14;;;;;;;53.83;28.45;;;;;;;;;;5035516;28;20034;-69
2023/03/02 07:44:40;;;;;;;51.25;27.75;;;;;;;;;;5003095;28;20042;-69
2023/03/02 07:47:05;;;;;;;54.88;28.48;;;;;;;;;;5015346;28;20037;-69
2023/03/02 07:49:30;;;;;;;51.10;28.10;;;;;;;;;;5022048;28;20042;-69
2023/03/02 07:51:56;;;;;;;52.13;27.50;;;;;;;;;;5023401;28;20633;-69
2023/03/02 07:54:29;;;;;;;50.65;26.30;;;;;;;;;;5022974;28;20025;-70
2023/03/02 07:56:54;;;;;;;50.38;26.48;;;;;;;;;;5023044;28;20025;-69
2023/03/02 07:59:19;;;;;;;50.85;27.65;;;;;;;;;;5024036;28;20297;-70
2023/03/02 08:01:45;;;;;;;49.58;26.65;;;;;;;;;;5023105;28;20029;-69
2023/03/02 08:04:12;;;;;;;49.30;26.98;;;;;;;;;;5021686;28;20414;-69
2023/03/02 08:06:41;;;;;;;51.90;27.95;;;;;;;;;;5041242;28;20127;-69
2023/03/02 08:09:06;;;;;;;53.47;28.15;;;;;;;;;;5043256;28;20570;-69
2023/03/02 08:11:32;;;;;;;48.88;26.60;;;;;;;;;;5042655;28;20043;-69
2023/03/02 08:14:01;;;;;;;47.70;27.35;;;;;;;;;;5041275;28;20037;-69
2023/03/02 08:16:26;;;;;;;49.38;27.50;;;;;;;;;;5042814;28;20029;-68
2023/03/02 08:18:51;;;;;;;46.72;26.55;;;;;;;;;;5042880;28;20037;-70
2023/03/02 08:21:18;;;;;;;45.67;26.08;;;;;;;;;;5042614;28;20036;-69
2023/03/02 08:23:43;;;;;;;43.70;25.27;;;;;;;;;;5025145;28;20159;-70
2023/03/02 08:26:09;;;;;;;45.55;26.05;;;;;;;;;;5041643;28;20029;-69
2023/03/02 08:28:37;;;;;;;42.47;23.98;;;;;;;;;;5040724;28;20417;-68
2023/03/02 08:31:03;;;;;;;45.20;24.98;;;;;;;;;;5022773;28;20030;-68
2023/03/02 08:33:29;;;;;;;42.42;24.98;;;;;;;;;;5021248;28;20041;-68
2023/03/02 08:35:58;;;;;;;45.03;24.60;;;;;;;;;;5002788;28;20030;-69
2023/03/02 08:38:24;;;;;;;43.83;24.33;;;;;;;;;;5002753;28;20076;-69
2023/03/02 08:40:50;;;;;;;40.22;23.33;;;;;;;;;;5002675;28;20034;-69
2023/03/02 08:43:15;;;;;;;43.67;24.85;;;;;;;;;;5002344;28;20048;-69
2023/03/02 08:45:41;;;;;;;44.88;25.48;;;;;;;;;;4985162;28;20034;-69
2023/03/02 08:48:06;;;;;;;43.28;23.90;;;;;;;;;;5002821;28;20120;-69
2023/03/02 08:50:31;;;;;;;43.80;24.58;;;;;;;;;;5003310;28;20092;-70
2023/03/02 08:52:56;;;;;;;40.47;24.05;;;;;;;;;;5001416;28;20483;-68
2023/03/02 08:55:22;;;;;;;40.53;23.90;;;;;;;;;;5001334;28;20058;-69
2023/03/02 08:57:47;;;;;;;40.63;23.40;;;;;;;;;;5002346;28;20080;-71
2023/03/02 09:00:17;;;;;;;44.28;24.55;;;;;;;;;;5002886;28;20026;-69
2023/03/02 09:02:42;;;;;;;42.72;24.33;;;;;;;;;;5019817;28;20224;-69
2023/03/02 09:05:08;;;;;;;41.08;24.33;;;;;;;;;;5022622;28;20112;-68
2023/03/02 09:07:36;;;;;;;42.42;24.20;;;;;;;;;;5021782;28;20112;-69
2023/03/02 09:10:03;;;;;;;41.45;23.45;;;;;;;;;;5022131;28;20043;-68
2023/03/02 09:12:31;;;;;;;42.40;23.92;;;;;;;;;;5022287;28;20038;-70
2023/03/02 09:14:58;;;;;;;41.83;24.10;;;;;;;;;;5022988;28;20418;-68
2023/03/02 09:17:23;;;;;;;42.17;24.45;;;;;;;;;;5022253;28;20037;-68
2023/03/02 09:19:51;;;;;;;41.13;24.70;;;;;;;;;;5022988;28;20029;-68
2023/03/02 09:22:17;;;;;;;39.80;23.38;;;;;;;;;;5021888;28;20029;-69
2023/03/02 09:24:45;;;;;;;41.65;23.15;;;;;;;;;;5022406;28;20046;-70
2023/03/02 09:27:10;;;;;;;41.03;23.63;;;;;;;;;;5021797;28;20069;-70
2023/03/02 09:29:37;;;;;;;40.17;22.85;;;;;;;;;;5020512;28;20053;-70
2023/03/02 09:32:02;;;;;;;40.13;23.48;;;;;;;;;;5022362;28;20053;-69
2023/03/02 09:34:28;;;;;;;38.03;22.58;;;;;;;;;;5020260;28;20155;-69
2023/03/02 09:36:56;;;;;;;38.88;23.30;;;;;;;;;;5022055;28;20037;-69
2023/03/02 09:39:23;;;;;;;38.13;24.30;;;;;;;;;;5020439;28;20032;-68
2023/03/02 09:42:01;;;;;;;37.25;22.83;;;;;;;;;;5022880;28;20025;-69
2023/03/02 09:44:35;;;;;;;39.28;22.95;;;;;;;;;;5022240;28;20057;-70
2023/03/02 09:47:11;;;;;;;38.53;22.95;;;;;;;;;;5021503;28;20556;-70
2023/03/02 09:49:45;;;;;;;38.78;23.42;;;;;;;;;;5020045;28;20608;-69
2023/03/02 09:52:29;;;;;;;40.90;24.23;;;;;;;;;;5036814;28;20029;-68
2023/03/02 09:54:56;;;;;;;42.17;23.73;;;;;;;;;;5023702;28;20030;-69
2023/03/02 09:57:25;;;;;;;41.47;24.52;;;;;;;;;;5024903;28;20038;-69
2023/03/02 09:59:54;;;;;;;37.30;23.77;;;;;;;;;;5025513;28;20482;-69
2023/03/02 10:02:36;;;;;;;39.65;24.73;;;;;;;;;;5023854;28;20099;-69
2023/03/02 10:05:03;;;;;;;38.38;23.00;;;;;;;;;;5025256;28;20040;-69
2023/03/02 10:07:30;;;;;;;38.45;23.10;;;;;;;;;;5023756;28;20044;-71
2023/03/02 10:10:00;;;;;;;39.90;23.85;;;;;;;;;;5024222;28;20180;-70
2023/03/02 10:12:39;;;;;;;38.83;24.55;;;;;;;;;;5023531;28;20367;-70
2023/03/02 10:15:07;;;;;;;41.95;24.98;;;;;;;;;;5025233;28;20018;-70
2023/03/02 10:17:37;;;;;;;38.53;23.40;;;;;;;;;;5024554;28;20082;-69
2023/03/02 10:20:07;;;;;;;37.58;23.80;;;;;;;;;;5024633;28;20443;-68
2023/03/02 10:22:35;;;;;;;40.72;23.65;;;;;;;;;;5025467;28;21369;-70
2023/03/02 10:25:00;;;;;;;38.22;23.48;;;;;;;;;;5023171;28;20516;-69
2023/03/02 10:27:32;;;;;;;39.33;24.17;;;;;;;;;;5025173;28;20033;-69
2023/03/02 10:30:00;;;;;;;39.25;22.95;;;;;;;;;;5024925;28;20030;-69
2023/03/02 10:32:38;;;;;;;35.67;22.05;;;;;;;;;;5023615;28;20030;-69
2023/03/02 10:35:14;;;;;;;41.78;23.70;;;;;;;;;;5023260;28;20434;-69
2023/03/02 10:37:39;;;;;;;41.92;24.38;;;;;;;;;;5003134;28;20041;-68
2023/03/02 10:40:07;;;;;;;36.25;23.25;;;;;;;;;;5005271;28;20371;-70
2023/03/02 10:42:35;;;;;;;36.03;22.95;;;;;;;;;;5003500;28;20030;-69
2023/03/02 10:45:17;;;;;;;35.28;22.55;;;;;;;;;;5004623;28;20049;-69
2023/03/02 10:47:43;;;;;;;37.13;22.20;;;;;;;;;;5004213;28;20064;-69
2023/03/02 10:50:20;;;;;;;38.00;23.20;;;;;;;;;;5004749;28;20476;-69
2023/03/02 10:52:48;;;;;;;37.65;24.13;;;;;;;;;;5005574;28;20056;-69
2023/03/02 10:55:13;;;;;;;37.70;23.23;;;;;;;;;;5023784;28;20030;-70
2023/03/02 10:57:39;;;;;;;34.80;21.92;;;;;;;;;;5024953;28;20402;-70
2023/03/02 11:00:21;;;;;;;36.65;22.40;;;;;;;;;;5022628;28;20033;-70
2023/03/02 11:02:54;;;;;;;37.50;23.33;;;;;;;;;;5039101;28;20449;-70
2023/03/02 11:05:24;;;;;;;33.58;21.63;;;;;;;;;;5023234;28;20044;-70
2023/03/02 11:07:53;;;;;;;35.72;22.42;;;;;;;;;;5023783;28;20053;-70
2023/03/02 11:10:23;;;;;;;35.17;21.50;;;;;;;;;;5022320;28;20125;-71
2023/03/02 11:12:49;;;;;;;33.22;21.48;;;;;;;;;;5023950;28;20042;-69
2023/03/02 11:15:17;;;;;;;35.20;22.17;;;;;;;;;;5024031;28;20029;-69
2023/03/02 11:17:44;;;;;;;33.88;21.30;;;;;;;;;;5023252;28;20041;-69
2023/03/02 11:20:15;;;;;;;34.10;21.45;;;;;;;;;;5023898;28;20517;-69
2023/03/02 11:22:46;;;;;;;32.97;21.02;;;;;;;;;;5024468;28;20025;-69
2023/03/02 11:25:17;;;;;;;40.42;22.05;;;;;;;;;;5024015;28;20410;-70
2023/03/02 11:27:43;;;;;;;35.20;22.17;;;;;;;;;;5021644;28;20132;-70
2023/03/02 11:30:17;;;;;;;31.25;20.27;;;;;;;;;;5023987;28;20022;-70
2023/03/02 11:32:52;;;;;;;35.45;20.20;;;;;;;;;;5021798;28;20394;-70
2023/03/02 11:35:20;;;;;;;30.90;20.05;;;;;;;;;;5021916;28;20064;-69
2023/03/02 11:37:50;;;;;;;31.30;19.80;;;;;;;;;;5023265;28;20060;-69
2023/03/02 11:40:16;;;;;;;31.92;20.25;;;;;;;;;;5023571;28;20398;-70
2023/03/02 11:42:44;;;;;;;34.30;20.70;;;;;;;;;;5023907;28;20030;-71
2023/03/02 11:45:10;;;;;;;32.60;20.98;;;;;;;;;;5004759;28;20037;-70
2023/03/02 11:47:36;;;;;;;33.15;21.10;;;;;;;;;;5023355;28;20041;-71
2023/03/02 11:50:05;;;;;;;33.35;20.52;;;;;;;;;;5021828;28;20548;-70
2023/03/02 11:52:32;;;;;;;34.15;21.52;;;;;;;;;;5023462;28;20486;-71
2023/03/02 11:54:57;;;;;;;31.55;20.50;;;;;;;;;;5023532;28;20045;-72
2023/03/02 11:57:29;;;;;;;32.63;20.48;;;;;;;;;;5021405;28;20696;-71
2023/03/02 11:59:57;;;;;;;34.33;20.85;;;;;;;;;;5020987;28;20439;-70
2023/03/02 12:02:22;;;;;;;31.80;20.20;;;;;;;;;;5022849;28;20482;-70
2023/03/02 12:04:48;;;;;;;32.70;20.92;;;;;;;;;;5022091;28;20091;-70
2023/03/02 12:07:23;;;;;;;30.58;20.33;;;;;;;;;;5022796;28;20025;-71
2023/03/02 12:09:58;;;;;;;32.25;21.35;;;;;;;;;;5022872;28;20059;-70
2023/03/02 12:12:35;;;;;;;33.22;21.88;;;;;;;;;;5022834;28;20348;-71
2023/03/02 12:15:01;;;;;;;32.22;21.45;;;;;;;;;;5021366;28;20101;-70
2023/03/02 12:17:26;;;;;;;35.38;21.30;;;;;;;;;;5023099;28;20108;-70
2023/03/02 12:20:06;;;;;;;31.92;21.30;;;;;;;;;;5020871;28;20034;-69
2023/03/02 12:22:37;;;;;;;32.78;20.20;;;;;;;;;;5021255;28;20121;-71
2023/03/02 12:25:03;;;;;;;32.97;21.10;;;;;;;;;;5021041;28;20021;-70
2023/03/02 12:27:33;;;;;;;33.67;21.13;;;;;;;;;;5021224;28;20048;-71
2023/03/02 12:30:08;;;;;;;31.10;20.33;;;;;;;;;;5020872;28;20128;-70
2023/03/02 12:32:33;;;;;;;32.88;21.15;;;;;;;;;;5003063;28;20113;-70
2023/03/02 12:35:02;;;;;;;29.35;19.10;;;;;;;;;;5003410;28;20046;-70
2023/03/02 12:37:45;;;;;;;32.35;19.90;;;;;;;;;;5020915;28;20026;-70
2023/03/02 12:40:13;;;;;;;28.77;19.27;;;;;;;;;;5022866;28;20026;-71
2023/03/02 12:42:52;;;;;;;31.95;21.02;;;;;;;;;;5022356;28;20029;-71
2023/03/02 12:45:26;;;;;;;31.58;19.58;;;;;;;;;;5020970;28;20080;-70
2023/03/02 12:47:57;;;;;;;29.67;19.33;;;;;;;;;;5020233;28;20041;-71
2023/03/02 12:50:26;;;;;;;29.85;20.10;;;;;;;;;;5022228;28;20498;-72
2023/03/02 12:52:57;;;;;;;30.23;20.75;;;;;;;;;;5022326;28;20034;-71
2023/03/02 12:55:25;;;;;;;30.42;20.63;;;;;;;;;;5022608;28;20025;-71
2023/03/02 12:57:52;;;;;;;31.95;20.65;;;;;;;;;;5022514;28;20398;-72
2023/03/02 13:00:18;;;;;;;30.40;20.13;;;;;;;;;;5020368;28;20044;-70
2023/03/02 13:02:49;;;;;;;32.35;19.88;;;;;;;;;;5020692;28;20030;-71
2023/03/02 13:05:25;;;;;;;36.17;20.90;;;;;;;;;;5022792;28;20402;-69
2023/03/02 13:08:06;;;;;;;31.83;20.15;;;;;;;;;;5020654;28;20096;-70
2023/03/02 13:10:51;;;;;;;32.90;20.45;;;;;;;;;;5022348;28;20372;-71
2023/03/02 13:13:16;;;;;;;37.03;20.85;;;;;;;;;;5020624;28;20029;-70
2023/03/02 13:15:49;;;;;;;33.15;20.88;;;;;;;;;;5022705;28;20074;-71
2023/03/02 13:18:18;;;;;;;35.67;21.73;;;;;;;;;;5021764;28;20040;-70
2023/03/02 13:20:43;;;;;;;37.47;21.40;;;;;;;;;;5021978;28;20090;-70
2023/03/02 13:23:12;;;;;;;35.63;20.77;;;;;;;;;;5022701;28;20034;-69
2023/03/02 13:25:45;;;;;;;38.17;21.92;;;;;;;;;;5022171;28;20030;-69
2023/03/02 13:28:29;;;;;;;37.70;22.02;;;;;;;;;;5023381;28;20045;-69
2023/03/02 13:31:04;;;;;;;37.63;22.40;;;;;;;;;;5019426;28;20036;-72
2023/03/02 13:33:30;;;;;;;39.20;20.52;;;;;;;;;;5025716;28;20068;-71
2023/03/02 13:35:56;;;;;;;34.10;19.70;;;;;;;;;;5026256;28;20110;-70
2023/03/02 13:38:22;;;;;;;34.45;19.80;;;;;;;;;;5025996;28;20076;-70
2023/03/02 13:40:50;;;;;;;37.10;21.15;;;;;;;;;;5025433;28;20515;-70
2023/03/02 13:43:21;;;;;;;34.00;19.98;;;;;;;;;;5025966;28;20145;-69
2023/03/02 13:45:54;;;;;;;36.33;21.30;;;;;;;;;;5023715;28;20025;-71
2023/03/02 13:48:20;;;;;;;32.20;19.38;;;;;;;;;;5023714;28;20513;-71
2023/03/02 13:50:53;;;;;;;37.03;21.02;;;;;;;;;;5025900;28;20105;-70
2023/03/02 13:53:18;;;;;;;33.72;19.98;;;;;;;;;;5022745;28;20049;-70
2023/03/02 13:55:44;;;;;;;34.28;19.30;;;;;;;;;;5025987;28;20026;-71
2023/03/02 13:58:13;;;;;;;31.55;18.55;;;;;;;;;;5025840;28;20533;-69
2023/03/02 14:00:38;;;;;;;32.33;19.10;;;;;;;;;;5007158;28;20040;-69
2023/03/02 14:03:09;;;;;;;32.38;18.73;;;;;;;;;;5024020;28;20030;-71
2023/03/02 14:05:34;;;;;;;32.83;18.95;;;;;;;;;;5025332;28;20029;-69
2023/03/02 14:07:59;;;;;;;31.77;18.75;;;;;;;;;;5025406;28;20048;-70
2023/03/02 14:10:25;;;;;;;32.92;18.75;;;;;;;;;;5024719;28;20028;-69
2023/03/02 14:13:10;;;;;;;34.63;19.70;;;;;;;;;;5007188;28;20655;-71
2023/03/02 14:15:39;;;;;;;34.20;18.83;;;;;;;;;;5025118;28;20022;-70
2023/03/02 14:18:27;;;;;;;32.92;19.30;;;;;;;;;;5013617;28;20034;-68
2023/03/02 14:20:52;;;;;;;34.50;19.40;;;;;;;;;;5022886;28;20044;-70